Terminal Aerodrome Forecast
Issued by NWS

Home | Current Version | Previous Version | Graphics & Text | Print | Product List | Glossary On
Versions: 1 2 3 4 5 6 7 8 9 10 11 12 13 14 15 16 17 18 19 20 21 22 23 24 25
000
FTUS43 KLOT 280300 AAA
TAFGYY
TAF AMD
KGYY 280300Z 2803/2824 10005KT P6SM SCT080 BKN150
     FM281600 31008KT P6SM VCSH SCT025 BKN035 PROB30 2817/2820 4SM
      TSRA BKN015 OVC035CB
     FM282200 30012KT P6SM SCT040 BKN100=

USA.gov is the U.S. government's official web portal to all federal, state and local government web resources and services.